Sign in

Advertise on goboko.com

You can reach many thousands of active pilots each month by advertising on goboko.com.

Please contact us for details.

Advertising

Info

Aviation weather - KJYO

METAR KJYO 300035Z AUTO 19004KT 10SM OVC065 00/M01 A3001 RMK AO2

TAF KIAD 282338Z 2900/3006 33006KT P6SM SKC FM290800 00000KT P6SM SCT250 FM291200 00000KT P6SM BKN090 FM291500 15007KT P6SM OVC090 FM291800 16010G18KT P6SM SCT050 OVC090 FM292100 17010G18KT 3SM -RASN SCT025 OVC050 FM300000 18009KT P6SM OVC050

ADDS Experimental. Do not use for flight-related decisions.

Javascript required. Ce site nécessite javascript